sensor_id;sensor_type;location;lat;lon;timestamp;pressure;altitude;pressure_sealevel;temperature;humidity
68988;BME280;56038;46.080;11.116;2023-06-14T00:04:47;98821.91;;;21.04;72.70
68988;BME280;56038;46.080;11.116;2023-06-14T00:09:51;98827.47;;;21.30;71.79
68988;BME280;56038;46.080;11.116;2023-06-14T00:14:53;98814.88;;;21.41;71.25
68988;BME280;56038;46.080;11.116;2023-06-14T00:19:56;98806.47;;;21.46;71.10
68988;BME280;56038;46.080;11.116;2023-06-14T00:24:58;98814.19;;;21.39;71.60
68988;BME280;56038;46.080;11.116;2023-06-14T00:30:00;98809.03;;;21.38;72.00
68988;BME280;56038;46.080;11.116;2023-06-14T00:35:03;98804.69;;;21.46;71.40
68988;BME280;56038;46.080;11.116;2023-06-14T00:40:06;98803.41;;;21.50;71.54
68988;BME280;56038;46.080;11.116;2023-06-14T00:45:09;98790.16;;;21.31;72.34
68988;BME280;56038;46.080;11.116;2023-06-14T00:50:13;98794.75;;;21.29;72.61
68988;BME280;56038;46.080;11.116;2023-06-14T00:55:15;98792.66;;;21.23;72.80
68988;BME280;56038;46.080;11.116;2023-06-14T01:00:17;98792.38;;;21.36;72.61
68988;BME280;56038;46.080;11.116;2023-06-14T01:05:24;98794.47;;;21.13;74.11
68988;BME280;56038;46.080;11.116;2023-06-14T01:10:36;98789.22;;;21.03;74.67
68988;BME280;56038;46.080;11.116;2023-06-14T01:15:44;98789.78;;;20.87;76.43
68988;BME280;56038;46.080;11.116;2023-06-14T01:20:47;98781.97;;;20.57;76.56
68988;BME280;56038;46.080;11.116;2023-06-14T01:25:52;98785.03;;;20.52;76.63
68988;BME280;56038;46.080;11.116;2023-06-14T01:30:54;98783.59;;;20.39;77.68
68988;BME280;56038;46.080;11.116;2023-06-14T01:35:56;98779.97;;;20.40;78.16
68988;BME280;56038;46.080;11.116;2023-06-14T01:40:59;98780.56;;;20.43;77.61
68988;BME280;56038;46.080;11.116;2023-06-14T01:46:03;98771.00;;;20.21;78.84
68988;BME280;56038;46.080;11.116;2023-06-14T01:51:05;98764.69;;;20.13;78.98
68988;BME280;56038;46.080;11.116;2023-06-14T01:56:08;98762.06;;;20.32;78.00
68988;BME280;56038;46.080;11.116;2023-06-14T02:01:10;98767.00;;;20.56;77.00
68988;BME280;56038;46.080;11.116;2023-06-14T02:06:12;98762.13;;;20.61;76.84
68988;BME280;56038;46.080;11.116;2023-06-14T02:11:15;98762.81;;;20.63;77.17
68988;BME280;56038;46.080;11.116;2023-06-14T02:16:17;98769.91;;;20.82;76.16
68988;BME280;56038;46.080;11.116;2023-06-14T02:21:18;98767.56;;;20.88;75.96
68988;BME280;56038;46.080;11.116;2023-06-14T02:26:21;98767.69;;;20.87;76.04
68988;BME280;56038;46.080;11.116;2023-06-14T02:31:24;98760.72;;;20.76;75.91
68988;BME280;56038;46.080;11.116;2023-06-14T02:36:25;98755.69;;;20.83;75.65
68988;BME280;56038;46.080;11.116;2023-06-14T02:41:29;98753.31;;;20.80;75.69
68988;BME280;56038;46.080;11.116;2023-06-14T02:46:31;98762.09;;;20.80;75.48
68988;BME280;56038;46.080;11.116;2023-06-14T02:51:32;98761.56;;;20.77;75.72
68988;BME280;56038;46.080;11.116;2023-06-14T02:56:35;98767.84;;;20.85;75.30
68988;BME280;56038;46.080;11.116;2023-06-14T03:01:37;98772.47;;;20.83;75.21
68988;BME280;56038;46.080;11.116;2023-06-14T03:06:41;98773.28;;;20.74;75.80
68988;BME280;56038;46.080;11.116;2023-06-14T03:11:46;98771.63;;;20.73;75.70
68988;BME280;56038;46.080;11.116;2023-06-14T03:16:47;98772.19;;;20.67;75.95
68988;BME280;56038;46.080;11.116;2023-06-14T03:21:50;98762.94;;;20.81;75.62
68988;BME280;56038;46.080;11.116;2023-06-14T03:26:54;98756.94;;;20.79;75.77
68988;BME280;56038;46.080;11.116;2023-06-14T03:31:58;98754.44;;;20.68;75.98
68988;BME280;56038;46.080;11.116;2023-06-14T03:37:00;98758.63;;;20.80;75.66
68988;BME280;56038;46.080;11.116;2023-06-14T03:42:04;98760.72;;;20.76;75.75
68988;BME280;56038;46.080;11.116;2023-06-14T03:47:06;98759.59;;;20.79;75.76
68988;BME280;56038;46.080;11.116;2023-06-14T03:52:08;98764.06;;;20.78;75.64
68988;BME280;56038;46.080;11.116;2023-06-14T03:57:11;98771.34;;;20.76;76.03
68988;BME280;56038;46.080;11.116;2023-06-14T04:02:13;98765.75;;;20.60;76.29
68988;BME280;56038;46.080;11.116;2023-06-14T04:07:16;98766.88;;;20.77;75.64
68988;BME280;56038;46.080;11.116;2023-06-14T04:12:21;98776.22;;;20.71;75.85
68988;BME280;56038;46.080;11.116;2023-06-14T04:17:23;98777.06;;;20.81;75.42
68988;BME280;56038;46.080;11.116;2023-06-14T04:22:24;98772.16;;;20.77;75.68
68988;BME280;56038;46.080;11.116;2023-06-14T04:27:30;98775.66;;;20.77;75.68
68988;BME280;56038;46.080;11.116;2023-06-14T04:32:36;98786.69;;;20.82;75.40
68988;BME280;56038;46.080;11.116;2023-06-14T04:37:39;98793.53;;;20.94;75.21
68988;BME280;56038;46.080;11.116;2023-06-14T04:42:43;98802.03;;;20.98;75.06
68988;BME280;56038;46.080;11.116;2023-06-14T04:47:45;98802.88;;;20.99;74.78
68988;BME280;56038;46.080;11.116;2023-06-14T04:52:47;98804.31;;;20.83;75.04
68988;BME280;56038;46.080;11.116;2023-06-14T04:57:53;98804.59;;;20.90;74.80
68988;BME280;56038;46.080;11.116;2023-06-14T05:02:54;98811.56;;;20.91;74.22
68988;BME280;56038;46.080;11.116;2023-06-14T05:07:57;98808.19;;;20.99;73.66
68988;BME280;56038;46.080;11.116;2023-06-14T05:13:00;98806.25;;;21.01;73.17
68988;BME280;56038;46.080;11.116;2023-06-14T05:18:02;98808.38;;;20.87;72.75
68988;BME280;56038;46.080;11.116;2023-06-14T05:23:04;98819.41;;;21.02;72.27
68988;BME280;56038;46.080;11.116;2023-06-14T05:28:07;98806.25;;;20.91;72.37
68988;BME280;56038;46.080;11.116;2023-06-14T05:33:09;98816.03;;;21.10;71.72
68988;BME280;56038;46.080;11.116;2023-06-14T05:38:11;98815.47;;;20.97;71.58
68988;BME280;56038;46.080;11.116;2023-06-14T05:43:14;98818.81;;;20.99;71.35
68988;BME280;56038;46.080;11.116;2023-06-14T05:48:16;98813.78;;;21.15;71.03
68988;BME280;56038;46.080;11.116;2023-06-14T05:53:17;98808.72;;;21.50;70.03
68988;BME280;56038;46.080;11.116;2023-06-14T05:58:20;98812.06;;;21.43;70.37
68988;BME280;56038;46.080;11.116;2023-06-14T06:03:23;98816.00;;;21.48;70.68
68988;BME280;56038;46.080;11.116;2023-06-14T06:08:25;98822.13;;;21.96;69.47
68988;BME280;56038;46.080;11.116;2023-06-14T06:13:28;98818.31;;;21.98;69.30
68988;BME280;56038;46.080;11.116;2023-06-14T06:18:30;98829.28;;;21.86;69.41
68988;BME280;56038;46.080;11.116;2023-06-14T06:23:32;98816.03;;;22.13;68.68
68988;BME280;56038;46.080;11.116;2023-06-14T06:28:35;98829.41;;;22.49;67.60
68988;BME280;56038;46.080;11.116;2023-06-14T06:33:37;98826.75;;;22.49;67.53
68988;BME280;56038;46.080;11.116;2023-06-14T06:38:40;98826.28;;;22.53;67.01
68988;BME280;56038;46.080;11.116;2023-06-14T06:43:43;98830.88;;;22.61;65.81
68988;BME280;56038;46.080;11.116;2023-06-14T06:48:45;98836.34;;;22.59;66.12
68988;BME280;56038;46.080;11.116;2023-06-14T06:53:52;98832.22;;;22.47;66.16
68988;BME280;56038;46.080;11.116;2023-06-14T06:58:55;98835.88;;;22.82;65.58
68988;BME280;56038;46.080;11.116;2023-06-14T07:03:57;98834.88;;;22.92;65.30
68988;BME280;56038;46.080;11.116;2023-06-14T07:08:59;98832.41;;;22.99;64.86
68988;BME280;56038;46.080;11.116;2023-06-14T07:14:03;98834.38;;;23.15;64.20
68988;BME280;56038;46.080;11.116;2023-06-14T07:19:05;98836.13;;;23.24;63.74
68988;BME280;56038;46.080;11.116;2023-06-14T07:24:07;98831.91;;;23.39;63.46
68988;BME280;56038;46.080;11.116;2023-06-14T07:29:14;98839.88;;;22.95;64.07
68988;BME280;56038;46.080;11.116;2023-06-14T07:34:16;98833.41;;;22.98;64.27
68988;BME280;56038;46.080;11.116;2023-06-14T07:39:18;98840.09;;;23.02;63.90
68988;BME280;56038;46.080;11.116;2023-06-14T07:44:21;98837.75;;;22.99;63.76
68988;BME280;56038;46.080;11.116;2023-06-14T07:49:23;98836.38;;;22.95;63.72
68988;BME280;56038;46.080;11.116;2023-06-14T07:54:25;98840.81;;;23.04;63.28
68988;BME280;56038;46.080;11.116;2023-06-14T07:59:29;98832.06;;;22.94;63.05
68988;BME280;56038;46.080;11.116;2023-06-14T08:04:31;98847.91;;;22.68;64.10
68988;BME280;56038;46.080;11.116;2023-06-14T08:09:33;98832.25;;;22.65;63.84
68988;BME280;56038;46.080;11.116;2023-06-14T08:14:36;98828.09;;;22.98;63.22
68988;BME280;56038;46.080;11.116;2023-06-14T08:19:38;98828.34;;;23.30;62.79
68988;BME280;56038;46.080;11.116;2023-06-14T08:24:41;98824.47;;;23.25;62.49
68988;BME280;56038;46.080;11.116;2023-06-14T08:29:44;98822.91;;;23.40;61.94
68988;BME280;56038;46.080;11.116;2023-06-14T08:34:46;98821.84;;;23.33;62.56
68988;BME280;56038;46.080;11.116;2023-06-14T08:39:48;98827.72;;;23.37;61.74
68988;BME280;56038;46.080;11.116;2023-06-14T08:44:51;98819.63;;;23.46;61.35
68988;BME280;56038;46.080;11.116;2023-06-14T08:49:53;98816.66;;;23.75;60.22
68988;BME280;56038;46.080;11.116;2023-06-14T08:54:57;98816.16;;;24.14;58.96
68988;BME280;56038;46.080;11.116;2023-06-14T09:00:02;98816.38;;;24.29;58.50
68988;BME280;56038;46.080;11.116;2023-06-14T09:05:10;98818.44;;;24.43;58.20
68988;BME280;56038;46.080;11.116;2023-06-14T09:10:15;98808.53;;;24.27;57.83
68988;BME280;56038;46.080;11.116;2023-06-14T09:15:18;98804.19;;;24.26;58.19
68988;BME280;56038;46.080;11.116;2023-06-14T09:20:20;98804.84;;;24.20;57.83
68988;BME280;56038;46.080;11.116;2023-06-14T09:25:22;98807.38;;;24.30;55.73
68988;BME280;56038;46.080;11.116;2023-06-14T09:30:27;98803.81;;;24.71;53.58
68988;BME280;56038;46.080;11.116;2023-06-14T09:35:31;98801.66;;;24.91;52.96
68988;BME280;56038;46.080;11.116;2023-06-14T09:40:34;98807.69;;;24.93;52.76
68988;BME280;56038;46.080;11.116;2023-06-14T09:45:38;98799.84;;;25.41;52.48
68988;BME280;56038;46.080;11.116;2023-06-14T09:50:41;98801.66;;;25.40;51.33
68988;BME280;56038;46.080;11.116;2023-06-14T09:55:43;98801.63;;;25.73;50.96
68988;BME280;56038;46.080;11.116;2023-06-14T10:00:49;98789.91;;;26.13;49.62
68988;BME280;56038;46.080;11.116;2023-06-14T10:05:52;98778.16;;;25.83;50.73
68988;BME280;56038;46.080;11.116;2023-06-14T10:10:56;98778.81;;;25.85;49.54
68988;BME280;56038;46.080;11.116;2023-06-14T10:16:05;98776.06;;;26.01;49.52
68988;BME280;56038;46.080;11.116;2023-06-14T10:21:16;98763.13;;;26.21;49.33
68988;BME280;56038;46.080;11.116;2023-06-14T10:26:21;98763.06;;;26.29;48.28
68988;BME280;56038;46.080;11.116;2023-06-14T10:31:39;98759.91;;;25.94;46.22
68988;BME280;56038;46.080;11.116;2023-06-14T10:36:42;98753.47;;;26.35;46.59
68988;BME280;56038;46.080;11.116;2023-06-14T10:41:51;98747.88;;;26.52;43.65
68988;BME280;56038;46.080;11.116;2023-06-14T10:46:57;98735.53;;;26.89;45.10
68988;BME280;56038;46.080;11.116;2023-06-14T10:52:05;98726.81;;;27.10;44.83
68988;BME280;56038;46.080;11.116;2023-06-14T10:57:07;98705.53;;;27.08;44.66
68988;BME280;56038;46.080;11.116;2023-06-14T11:02:27;98711.56;;;27.25;43.01
68988;BME280;56038;46.080;11.116;2023-06-14T11:07:46;98717.88;;;27.62;41.40
68988;BME280;56038;46.080;11.116;2023-06-14T11:12:51;98699.59;;;28.23;41.66
68988;BME280;56038;46.080;11.116;2023-06-14T11:17:57;98701.44;;;28.01;40.99
68988;BME280;56038;46.080;11.116;2023-06-14T11:22:59;98699.72;;;27.93;40.45
68988;BME280;56038;46.080;11.116;2023-06-14T11:28:01;98689.81;;;28.30;40.54
68988;BME280;56038;46.080;11.116;2023-06-14T11:33:04;98678.59;;;28.90;38.53
68988;BME280;56038;46.080;11.116;2023-06-14T11:38:06;98679.69;;;28.53;39.15
68988;BME280;56038;46.080;11.116;2023-06-14T11:43:08;98675.34;;;28.52;37.78
68988;BME280;56038;46.080;11.116;2023-06-14T11:48:11;98664.88;;;28.00;38.25
68988;BME280;56038;46.080;11.116;2023-06-14T11:53:13;98657.44;;;28.38;37.82
68988;BME280;56038;46.080;11.116;2023-06-14T11:58:18;98644.13;;;28.51;36.54
68988;BME280;56038;46.080;11.116;2023-06-14T12:03:24;98641.78;;;28.70;35.11
68988;BME280;56038;46.080;11.116;2023-06-14T12:08:32;98642.91;;;28.54;35.06
68988;BME280;56038;46.080;11.116;2023-06-14T12:13:39;98643.38;;;28.57;35.32
68988;BME280;56038;46.080;11.116;2023-06-14T12:18:42;98623.22;;;28.75;36.59
68988;BME280;56038;46.080;11.116;2023-06-14T12:23:46;98619.31;;;29.05;36.49
68988;BME280;56038;46.080;11.116;2023-06-14T12:28:49;98609.34;;;28.99;36.45
68988;BME280;56038;46.080;11.116;2023-06-14T12:33:52;98603.72;;;29.76;35.41
68988;BME280;56038;46.080;11.116;2023-06-14T12:38:54;98604.28;;;29.59;34.72
68988;BME280;56038;46.080;11.116;2023-06-14T12:43:56;98603.22;;;30.14;35.37
68988;BME280;56038;46.080;11.116;2023-06-14T12:49:01;98599.50;;;30.68;35.42
68988;BME280;56038;46.080;11.116;2023-06-14T12:54:03;98602.09;;;31.08;35.05
68988;BME280;56038;46.080;11.116;2023-06-14T12:59:05;98596.13;;;30.99;35.41
68988;BME280;56038;46.080;11.116;2023-06-14T13:04:09;98584.13;;;30.55;34.91
68988;BME280;56038;46.080;11.116;2023-06-14T13:09:11;98592.25;;;31.46;35.34
68988;BME280;56038;46.080;11.116;2023-06-14T13:14:13;98587.69;;;31.92;34.03
68988;BME280;56038;46.080;11.116;2023-06-14T13:19:17;98587.69;;;32.48;32.34
68988;BME280;56038;46.080;11.116;2023-06-14T13:24:18;98578.31;;;32.94;29.87
68988;BME280;56038;46.080;11.116;2023-06-14T13:29:20;98568.38;;;32.13;31.34
68988;BME280;56038;46.080;11.116;2023-06-14T13:34:23;98570.03;;;30.47;31.61
68988;BME280;56038;46.080;11.116;2023-06-14T13:39:25;98563.78;;;30.00;33.76
68988;BME280;56038;46.080;11.116;2023-06-14T13:44:27;98558.53;;;29.65;34.45
68988;BME280;56038;46.080;11.116;2023-06-14T13:49:30;98569.28;;;29.65;34.26
68988;BME280;56038;46.080;11.116;2023-06-14T13:54:32;98566.50;;;29.39;35.59
68988;BME280;56038;46.080;11.116;2023-06-14T13:59:34;98562.66;;;28.44;38.61
68988;BME280;56038;46.080;11.116;2023-06-14T14:04:37;98551.56;;;28.26;39.13
68988;BME280;56038;46.080;11.116;2023-06-14T14:09:39;98549.56;;;28.69;38.60
68988;BME280;56038;46.080;11.116;2023-06-14T14:14:43;98555.81;;;29.59;37.53
68988;BME280;56038;46.080;11.116;2023-06-14T14:19:46;98548.50;;;30.33;36.79
68988;BME280;56038;46.080;11.116;2023-06-14T14:24:48;98545.38;;;30.63;36.26
68988;BME280;56038;46.080;11.116;2023-06-14T14:29:49;98535.16;;;30.85;35.43
68988;BME280;56038;46.080;11.116;2023-06-14T14:34:53;98541.94;;;31.00;35.11
68988;BME280;56038;46.080;11.116;2023-06-14T14:39:54;98542.81;;;30.94;35.42
68988;BME280;56038;46.080;11.116;2023-06-14T14:44:56;98539.28;;;30.94;35.74
68988;BME280;56038;46.080;11.116;2023-06-14T14:49:59;98542.72;;;31.27;35.54
68988;BME280;56038;46.080;11.116;2023-06-14T14:55:01;98535.88;;;31.63;35.42
68988;BME280;56038;46.080;11.116;2023-06-14T15:00:04;98535.19;;;30.78;37.10
68988;BME280;56038;46.080;11.116;2023-06-14T15:05:09;98532.53;;;30.32;37.64
68988;BME280;56038;46.080;11.116;2023-06-14T15:10:11;98533.75;;;30.42;38.13
68988;BME280;56038;46.080;11.116;2023-06-14T15:15:13;98529.19;;;30.50;37.58
68988;BME280;56038;46.080;11.116;2023-06-14T15:20:16;98539.09;;;30.82;37.18
68988;BME280;56038;46.080;11.116;2023-06-14T15:25:17;98523.56;;;30.71;37.09
68988;BME280;56038;46.080;11.116;2023-06-14T15:30:22;98537.91;;;29.99;38.45
68988;BME280;56038;46.080;11.116;2023-06-14T15:35:25;98538.47;;;29.74;38.52
68988;BME280;56038;46.080;11.116;2023-06-14T15:40:27;98534.53;;;29.09;39.48
68988;BME280;56038;46.080;11.116;2023-06-14T15:45:29;98535.47;;;28.32;40.53
68988;BME280;56038;46.080;11.116;2023-06-14T15:50:32;98543.47;;;27.62;41.71
68988;BME280;56038;46.080;11.116;2023-06-14T15:55:34;98546.63;;;26.85;43.56
68988;BME280;56038;46.080;11.116;2023-06-14T16:00:36;98553.78;;;26.17;45.22
68988;BME280;56038;46.080;11.116;2023-06-14T16:05:44;98544.56;;;26.05;46.06
68988;BME280;56038;46.080;11.116;2023-06-14T16:10:46;98553.31;;;25.76;46.90
68988;BME280;56038;46.080;11.116;2023-06-14T16:15:47;98564.25;;;25.58;47.65
68988;BME280;56038;46.080;11.116;2023-06-14T16:20:51;98559.09;;;25.57;47.20
68988;BME280;56038;46.080;11.116;2023-06-14T16:25:55;98569.88;;;25.72;47.10
68988;BME280;56038;46.080;11.116;2023-06-14T16:30:57;98579.91;;;25.70;47.41
68988;BME280;56038;46.080;11.116;2023-06-14T16:36:00;98591.59;;;25.77;47.42
68988;BME280;56038;46.080;11.116;2023-06-14T16:41:02;98609.22;;;25.55;48.33
68988;BME280;56038;46.080;11.116;2023-06-14T16:46:04;98606.53;;;25.63;47.50
68988;BME280;56038;46.080;11.116;2023-06-14T16:51:07;98623.22;;;25.73;47.14
68988;BME280;56038;46.080;11.116;2023-06-14T16:56:09;98624.59;;;25.22;48.36
68988;BME280;56038;46.080;11.116;2023-06-14T17:01:11;98635.19;;;24.83;48.96
68988;BME280;56038;46.080;11.116;2023-06-14T17:06:14;98640.38;;;24.60;49.55
68988;BME280;56038;46.080;11.116;2023-06-14T17:11:16;98657.94;;;24.38;49.64
68988;BME280;56038;46.080;11.116;2023-06-14T17:16:19;98666.78;;;24.30;50.00
68988;BME280;56038;46.080;11.116;2023-06-14T17:21:22;98684.72;;;24.12;50.05
68988;BME280;56038;46.080;11.116;2023-06-14T17:26:24;98688.59;;;24.17;50.32
68988;BME280;56038;46.080;11.116;2023-06-14T17:31:27;98700.72;;;24.04;50.11
68988;BME280;56038;46.080;11.116;2023-06-14T17:36:30;98695.41;;;24.04;50.24
68988;BME280;56038;46.080;11.116;2023-06-14T17:41:31;98716.41;;;24.07;50.03
68988;BME280;56038;46.080;11.116;2023-06-14T17:46:33;98707.56;;;24.06;50.04
68988;BME280;56038;46.080;11.116;2023-06-14T17:51:36;98722.25;;;24.02;50.01
68988;BME280;56038;46.080;11.116;2023-06-14T17:56:38;98734.19;;;23.90;50.35
68988;BME280;56038;46.080;11.116;2023-06-14T18:01:40;98742.75;;;24.02;49.75
68988;BME280;56038;46.080;11.116;2023-06-14T18:06:43;98755.59;;;24.06;49.61
68988;BME280;56038;46.080;11.116;2023-06-14T18:11:45;98759.47;;;24.20;49.96
68988;BME280;56038;46.080;11.116;2023-06-14T18:16:46;98761.97;;;24.22;50.12
68988;BME280;56038;46.080;11.116;2023-06-14T18:21:50;98760.84;;;23.82;50.66
68988;BME280;56038;46.080;11.116;2023-06-14T18:26:51;98775.63;;;23.68;51.18
68988;BME280;56038;46.080;11.116;2023-06-14T18:31:53;98783.41;;;23.62;51.64
68988;BME280;56038;46.080;11.116;2023-06-14T18:36:58;98786.91;;;23.62;51.92
68988;BME280;56038;46.080;11.116;2023-06-14T18:42:00;98789.78;;;23.43;52.33
68988;BME280;56038;46.080;11.116;2023-06-14T18:47:02;98800.94;;;23.46;52.53
68988;BME280;56038;46.080;11.116;2023-06-14T18:52:06;98816.06;;;23.38;52.57
68988;BME280;56038;46.080;11.116;2023-06-14T18:57:08;98824.72;;;23.14;53.23
68988;BME280;56038;46.080;11.116;2023-06-14T19:02:09;98827.06;;;23.17;52.80
68988;BME280;56038;46.080;11.116;2023-06-14T19:07:13;98833.38;;;23.16;53.11
68988;BME280;56038;46.080;11.116;2023-06-14T19:12:14;98831.50;;;23.08;53.48
68988;BME280;56038;46.080;11.116;2023-06-14T19:17:16;98821.97;;;22.88;54.49
68988;BME280;56038;46.080;11.116;2023-06-14T19:22:19;98841.44;;;22.70;55.60
68988;BME280;56038;46.080;11.116;2023-06-14T19:27:21;98849.72;;;22.50;57.10
68988;BME280;56038;46.080;11.116;2023-06-14T19:32:25;98872.16;;;22.47;58.31
68988;BME280;56038;46.080;11.116;2023-06-14T19:37:29;98881.19;;;22.54;57.25
68988;BME280;56038;46.080;11.116;2023-06-14T19:42:31;98894.66;;;22.53;57.75
68988;BME280;56038;46.080;11.116;2023-06-14T19:47:33;98911.03;;;22.58;57.71
68988;BME280;56038;46.080;11.116;2023-06-14T19:52:36;98921.34;;;22.43;58.69
68988;BME280;56038;46.080;11.116;2023-06-14T19:57:38;98927.94;;;22.39;58.48
68988;BME280;56038;46.080;11.116;2023-06-14T20:02:40;98935.13;;;22.29;59.04
68988;BME280;56038;46.080;11.116;2023-06-14T20:07:43;98930.97;;;22.17;59.58
68988;BME280;56038;46.080;11.116;2023-06-14T20:12:45;98927.44;;;22.26;58.68
68988;BME280;56038;46.080;11.116;2023-06-14T20:17:47;98932.97;;;22.42;58.00
68988;BME280;56038;46.080;11.116;2023-06-14T20:22:50;98941.94;;;22.41;58.36
68988;BME280;56038;46.080;11.116;2023-06-14T20:27:52;98945.25;;;22.16;60.88
68988;BME280;56038;46.080;11.116;2023-06-14T20:32:54;98959.72;;;21.94;61.62
68988;BME280;56038;46.080;11.116;2023-06-14T20:37:57;98966.88;;;21.83;63.02
68988;BME280;56038;46.080;11.116;2023-06-14T20:42:59;98972.63;;;21.79;62.08
68988;BME280;56038;46.080;11.116;2023-06-14T20:48:04;98970.38;;;21.84;61.76
68988;BME280;56038;46.080;11.116;2023-06-14T20:53:07;98984.59;;;21.93;61.14
68988;BME280;56038;46.080;11.116;2023-06-14T20:58:09;98977.75;;;21.90;61.21
68988;BME280;56038;46.080;11.116;2023-06-14T21:03:13;98984.06;;;21.99;60.66
68988;BME280;56038;46.080;11.116;2023-06-14T21:08:17;98985.88;;;21.98;60.69
68988;BME280;56038;46.080;11.116;2023-06-14T21:13:18;98992.03;;;21.89;62.24
68988;BME280;56038;46.080;11.116;2023-06-14T21:18:21;99001.44;;;21.74;62.41
68988;BME280;56038;46.080;11.116;2023-06-14T21:23:24;99009.84;;;21.79;62.24
68988;BME280;56038;46.080;11.116;2023-06-14T21:28:26;98995.44;;;21.72;62.24
68988;BME280;56038;46.080;11.116;2023-06-14T21:33:28;99003.69;;;21.69;62.49
68988;BME280;56038;46.080;11.116;2023-06-14T21:38:31;98999.06;;;21.71;62.26
68988;BME280;56038;46.080;11.116;2023-06-14T21:43:33;98998.50;;;21.77;62.28
68988;BME280;56038;46.080;11.116;2023-06-14T21:48:35;99007.31;;;21.87;61.88
68988;BME280;56038;46.080;11.116;2023-06-14T21:53:38;99008.97;;;21.88;63.75
68988;BME280;56038;46.080;11.116;2023-06-14T21:58:40;99003.94;;;21.85;63.35
68988;BME280;56038;46.080;11.116;2023-06-14T22:03:42;99017.97;;;21.68;65.09
68988;BME280;56038;46.080;11.116;2023-06-14T22:08:46;99027.03;;;21.75;63.62
68988;BME280;56038;46.080;11.116;2023-06-14T22:13:48;99046.78;;;21.63;64.88
68988;BME280;56038;46.080;11.116;2023-06-14T22:18:49;99042.00;;;21.57;65.81
68988;BME280;56038;46.080;11.116;2023-06-14T22:23:53;99057.53;;;21.51;65.12
68988;BME280;56038;46.080;11.116;2023-06-14T22:28:56;99076.56;;;21.57;65.20
68988;BME280;56038;46.080;11.116;2023-06-14T22:34:06;99095.09;;;21.28;68.81
68988;BME280;56038;46.080;11.116;2023-06-14T22:39:09;99094.28;;;20.97;68.31
68988;BME280;56038;46.080;11.116;2023-06-14T22:44:12;99087.13;;;20.87;68.26
68988;BME280;56038;46.080;11.116;2023-06-14T22:49:16;99084.28;;;20.79;70.52
68988;BME280;56038;46.080;11.116;2023-06-14T22:54:20;99097.34;;;20.61;67.61
68988;BME280;56038;46.080;11.116;2023-06-14T22:59:21;99103.81;;;20.48;67.14
68988;BME280;56038;46.080;11.116;2023-06-14T23:04:24;99108.72;;;20.31;67.44
68988;BME280;56038;46.080;11.116;2023-06-14T23:09:28;99106.25;;;20.19;65.16
68988;BME280;56038;46.080;11.116;2023-06-14T23:14:30;99109.28;;;20.14;63.03
68988;BME280;56038;46.080;11.116;2023-06-14T23:19:32;99108.75;;;19.99;64.28
68988;BME280;56038;46.080;11.116;2023-06-14T23:24:35;99109.59;;;20.00;64.47
68988;BME280;56038;46.080;11.116;2023-06-14T23:29:37;99112.34;;;19.78;65.52
68988;BME280;56038;46.080;11.116;2023-06-14T23:34:42;99103.59;;;19.66;69.61
68988;BME280;56038;46.080;11.116;2023-06-14T23:39:45;99110.69;;;19.65;67.05
68988;BME280;56038;46.080;11.116;2023-06-14T23:44:50;99115.03;;;19.66;67.41
68988;BME280;56038;46.080;11.116;2023-06-14T23:49:52;99125.75;;;19.76;66.84
68988;BME280;56038;46.080;11.116;2023-06-14T23:54:55;99119.78;;;19.84;67.20
68988;BME280;56038;46.080;11.116;2023-06-14T23:59:58;99127.38;;;19.88;67.28
